Time;durP1;ratioP1;P1;durP2;ratioP2;P2;SDS_P1;SDS_P2;PMS_P1;PMS_P2;Temp;Humidity;BMP_temperature;BMP_pressure;BME280_temperature;BME280_humidity;BME280_pressure;Samples;Min_cycle;Max_cycle;Signal;HPM_P1;HPM_P2
2021/07/16 00:00:30;;;;;;;21.75;8.90;;;;;;;18.27;80.11;102004.22;4815004;29;20082;-38
2021/07/16 00:02:56;;;;;;;17.83;7.93;;;;;;;18.57;80.12;101995.53;4820700;29;20081;-38
2021/07/16 00:05:23;;;;;;;22.58;8.25;;;;;;;18.67;79.67;102000.66;4816570;29;20172;-38
2021/07/16 00:07:50;;;;;;;21.08;7.80;;;;;;;18.77;77.94;101998.63;4818246;29;20149;-38
2021/07/16 00:10:19;;;;;;;22.27;7.88;;;;;;;18.26;79.87;102003.41;4811566;29;20170;-38
2021/07/16 00:12:47;;;;;;;22.38;7.80;;;;;;;18.06;80.02;102008.25;4814872;29;20177;-38
2021/07/16 00:15:15;;;;;;;17.23;6.87;;;;;;;18.19;80.26;102005.09;4818379;29;20093;-38
2021/07/16 00:17:42;;;;;;;17.83;7.53;;;;;;;18.37;79.93;102003.06;4818806;29;20381;-38
2021/07/16 00:20:10;;;;;;;17.63;8.05;;;;;;;18.04;80.67;102007.59;4813012;29;20216;-38
2021/07/16 00:22:37;;;;;;;18.60;7.30;;;;;;;17.88;79.75;102015.56;4818231;29;20141;-38
2021/07/16 00:25:06;;;;;;;20.48;6.85;;;;;;;17.90;81.29;102005.59;4814444;29;20466;-38
2021/07/16 00:27:33;;;;;;;19.08;7.55;;;;;;;18.27;79.20;102005.09;4812405;29;20089;-38
2021/07/16 00:30:00;;;;;;;16.65;6.93;;;;;;;18.37;78.42;102002.25;4820849;29;20062;-38
2021/07/16 00:32:26;;;;;;;19.38;7.75;;;;;;;18.29;77.22;102005.75;4817142;29;20170;-38
2021/07/16 00:34:54;;;;;;;18.90;7.13;;;;;;;18.26;77.29;101999.94;4818064;29;20055;-38
2021/07/16 00:37:20;;;;;;;16.85;7.43;;;;;;;18.20;78.46;102000.59;4806741;29;20721;-38
2021/07/16 00:39:47;;;;;;;17.55;6.68;;;;;;;17.70;80.86;102005.91;4814672;29;20566;-38
2021/07/16 00:42:13;;;;;;;13.88;7.43;;;;;;;17.51;81.03;102012.31;4811559;29;20150;-38
2021/07/16 00:44:40;;;;;;;15.15;7.07;;;;;;;17.66;81.60;102009.88;4816349;29;20500;-38
2021/07/16 00:47:07;;;;;;;16.70;6.57;;;;;;;18.09;79.98;102015.88;4817817;29;20518;-38
2021/07/16 00:49:34;;;;;;;18.27;6.70;;;;;;;18.38;78.17;102018.00;4809198;29;20147;-38
2021/07/16 00:52:01;;;;;;;12.90;6.97;;;;;;;18.27;77.31;102017.50;4825601;29;20329;-38
2021/07/16 00:54:28;;;;;;;15.50;7.03;;;;;;;17.92;79.69;102019.53;4823346;29;20146;-38
2021/07/16 00:56:54;;;;;;;16.00;7.82;;;;;;;18.03;80.32;102021.84;4818243;29;20517;-38
2021/07/16 00:59:22;;;;;;;21.73;9.30;;;;;;;17.90;81.39;102014.41;4812333;29;20661;-38
2021/07/16 01:01:49;;;;;;;16.58;8.13;;;;;;;17.83;81.75;102023.16;4825566;29;20448;-38
2021/07/16 01:04:16;;;;;;;15.48;7.47;;;;;;;18.14;79.64;102010.88;4811104;29;20058;-38
2021/07/16 01:06:42;;;;;;;15.43;7.47;;;;;;;18.06;80.90;102012.72;4811613;29;20086;-38
2021/07/16 01:09:09;;;;;;;22.85;7.68;;;;;;;17.97;80.24;102007.44;4831551;29;20068;-38
2021/07/16 01:11:35;;;;;;;23.05;7.50;;;;;;;17.89;81.09;102004.75;4822564;29;20085;-38
2021/07/16 01:14:02;;;;;;;17.17;7.43;;;;;;;18.10;80.19;102008.75;4817976;29;20090;-38
2021/07/16 01:16:30;;;;;;;23.58;7.82;;;;;;;18.34;80.06;102013.19;4826364;29;20054;-38
2021/07/16 01:18:58;;;;;;;19.17;7.65;;;;;;;18.14;79.92;102018.03;4820907;29;20497;-38
2021/07/16 01:21:27;;;;;;;21.98;8.45;;;;;;;18.04;80.87;102015.56;4825507;29;20162;-38
2021/07/16 01:23:54;;;;;;;18.60;7.20;;;;;;;18.39;80.08;102016.19;4811718;29;20119;-38
2021/07/16 01:26:20;;;;;;;21.92;8.05;;;;;;;18.22;78.92;102015.38;4815106;29;20149;-38
2021/07/16 01:28:47;;;;;;;25.77;8.98;;;;;;;18.62;77.62;102015.44;4812773;29;20158;-38
2021/07/16 01:31:13;;;;;;;17.85;8.45;;;;;;;18.34;79.54;102010.53;4812356;29;20153;-38
2021/07/16 01:33:41;;;;;;;17.40;8.68;;;;;;;18.11;79.76;102015.69;4822521;29;20062;-38
2021/07/16 01:36:07;;;;;;;21.70;8.93;;;;;;;18.27;80.10;102009.53;4818434;29;20795;-38
2021/07/16 01:38:34;;;;;;;22.88;9.25;;;;;;;18.57;77.97;102013.31;4812009;29;20145;-38
2021/07/16 01:41:04;;;;;;;22.45;8.95;;;;;;;18.69;76.65;102009.28;4817669;29;20062;-38
2021/07/16 01:43:30;;;;;;;16.23;8.07;;;;;;;18.65;76.92;102015.94;4817529;29;20054;-38
2021/07/16 01:45:57;;;;;;;24.92;9.32;;;;;;;18.22;77.14;102011.88;4824260;29;20145;-38
2021/07/16 01:48:24;;;;;;;16.95;7.70;;;;;;;18.14;78.76;102016.19;4830810;29;20144;-38
2021/07/16 01:50:50;;;;;;;21.45;8.50;;;;;;;18.45;77.40;102017.34;4812609;29;20544;-38
2021/07/16 01:53:18;;;;;;;19.95;8.50;;;;;;;18.10;78.57;102025.50;4817398;29;20058;-38
2021/07/16 01:55:46;;;;;;;23.00;7.85;;;;;;;17.94;78.45;102028.16;4805529;29;20133;-38
2021/07/16 01:58:14;;;;;;;18.95;8.07;;;;;;;17.79;79.44;102035.91;4817362;29;20058;-38
2021/07/16 02:00:46;;;;;;;23.83;9.93;;;;;;;17.83;79.84;102036.41;4817774;29;20104;-38
2021/07/16 02:03:16;;;;;;;21.80;9.45;;;;;;;18.07;78.43;102031.16;4818724;29;20065;-37
2021/07/16 02:05:45;;;;;;;20.75;8.07;;;;;;;17.95;78.68;102035.97;4821944;29;20085;-37
2021/07/16 02:08:17;;;;;;;23.60;8.80;;;;;;;17.78;80.25;102037.75;4807549;29;20057;-37
2021/07/16 02:10:55;;;;;;;24.83;8.75;;;;;;;18.28;77.53;102033.28;4813762;29;20062;-37
2021/07/16 02:13:22;;;;;;;23.17;9.02;;;;;;;18.57;74.93;102034.56;4811631;29;20136;-37
2021/07/16 02:15:50;;;;;;;21.40;8.43;;;;;;;18.17;76.63;102039.78;4817171;29;20050;-37
2021/07/16 02:18:18;;;;;;;21.45;8.68;;;;;;;17.96;77.13;102034.13;4823654;29;20070;-37
2021/07/16 02:20:45;;;;;;;25.25;8.65;;;;;;;17.78;77.19;102031.63;4817058;29;20566;-37
2021/07/16 02:23:17;;;;;;;23.53;8.87;;;;;;;18.10;76.83;102027.34;4806240;29;20158;-37
2021/07/16 02:25:44;;;;;;;20.90;8.50;;;;;;;18.30;75.27;102025.16;4816428;29;20141;-37
2021/07/16 02:28:24;;;;;;;24.05;8.57;;;;;;;17.88;77.53;102042.09;4815786;29;20544;-37
2021/07/16 02:30:52;;;;;;;21.40;8.68;;;;;;;17.59;78.90;102038.03;4809254;29;20086;-37
2021/07/16 02:33:19;;;;;;;21.33;9.00;;;;;;;17.45;80.90;102049.28;4818621;29;20054;-37
2021/07/16 02:35:46;;;;;;;26.63;9.40;;;;;;;17.35;80.70;102052.09;4808155;29;20137;-37
2021/07/16 02:38:13;;;;;;;27.48;9.50;;;;;;;17.27;80.61;102055.53;4812039;29;20097;-37
2021/07/16 02:40:40;;;;;;;20.92;8.27;;;;;;;17.24;81.38;102057.69;4820069;29;20062;-37
2021/07/16 02:43:08;;;;;;;23.48;8.48;;;;;;;17.26;81.39;102056.50;4832126;29;20610;-37
2021/07/16 02:45:35;;;;;;;30.25;9.48;;;;;;;17.24;81.02;102055.84;4825012;29;20495;-37
2021/07/16 02:48:03;;;;;;;31.10;9.73;;;;;;;17.75;79.30;102045.19;4813031;29;20058;-37
2021/07/16 02:50:32;;;;;;;26.63;8.88;;;;;;;18.31;76.34;102046.25;4810841;29;20058;-37
2021/07/16 02:53:07;;;;;;;27.30;9.68;;;;;;;18.55;74.01;102042.69;4809241;29;20062;-37
2021/07/16 02:55:35;;;;;;;26.95;8.25;;;;;;;18.68;73.74;102042.19;4829587;29;20129;-37
2021/07/16 02:58:03;;;;;;;30.67;10.18;;;;;;;17.96;75.59;102039.44;4810805;29;20094;-37
2021/07/16 03:00:31;;;;;;;20.70;8.57;;;;;;;17.56;77.76;102041.00;4819971;29;20100;-37
2021/07/16 03:02:58;;;;;;;21.25;8.10;;;;;;;17.30;78.20;102047.25;4806254;29;20061;-37
2021/07/16 03:05:28;;;;;;;24.33;8.90;;;;;;;17.19;78.32;102048.38;4812776;29;20066;-37
2021/07/16 03:07:55;;;;;;;26.80;9.02;;;;;;;17.24;77.53;102047.06;4816770;29;20518;-37
2021/07/16 03:10:24;;;;;;;19.60;8.53;;;;;;;17.12;78.90;102039.41;4810815;29;20090;-37
2021/07/16 03:12:51;;;;;;;24.48;8.10;;;;;;;17.37;76.91;102042.16;4815767;29;20376;-37
2021/07/16 03:15:20;;;;;;;19.60;8.30;;;;;;;17.44;76.84;102043.13;4811457;29;20078;-37
2021/07/16 03:17:47;;;;;;;26.48;8.52;;;;;;;17.16;79.22;102045.22;4811934;29;20150;-37
2021/07/16 03:20:17;;;;;;;28.13;8.07;;;;;;;17.72;76.01;102042.84;4812922;29;20461;-37
2021/07/16 03:22:44;;;;;;;25.50;7.70;;;;;;;17.82;75.94;102042.69;4819389;29;20110;-37
2021/07/16 03:25:14;;;;;;;24.85;7.50;;;;;;;18.00;73.34;102045.25;4815533;29;20054;-37
2021/07/16 03:27:41;;;;;;;28.02;8.38;;;;;;;18.04;73.06;102050.06;4819634;29;20154;-37
2021/07/16 03:30:14;;;;;;;18.35;7.03;;;;;;;18.13;72.88;102053.53;4815155;29;20144;-37
2021/07/16 03:32:41;;;;;;;21.63;7.03;;;;;;;18.04;72.98;102051.91;4819537;29;20483;-37
2021/07/16 03:35:09;;;;;;;24.45;7.80;;;;;;;17.99;72.43;102047.06;4819495;29;20046;-37
2021/07/16 03:37:38;;;;;;;24.73;6.90;;;;;;;17.51;74.55;102051.28;4814764;29;20073;-37
2021/07/16 03:40:07;;;;;;;26.23;6.93;;;;;;;17.46;74.75;102051.75;4813744;29;20585;-37
2021/07/16 03:42:34;;;;;;;25.33;6.65;;;;;;;17.31;74.69;102056.06;4823097;29;20394;-37
2021/07/16 03:45:00;;;;;;;21.42;6.75;;;;;;;17.11;76.18;102055.47;4818049;29;20085;-37
2021/07/16 03:47:27;;;;;;;27.85;7.72;;;;;;;17.46;75.56;102054.41;4825106;29;20157;-37
2021/07/16 03:49:53;;;;;;;20.88;7.50;;;;;;;17.52;74.58;102059.09;4814229;29;20237;-37
2021/07/16 03:52:21;;;;;;;21.75;7.00;;;;;;;17.38;74.92;102065.00;4819587;29;20166;-37
2021/07/16 03:54:50;;;;;;;19.90;7.70;;;;;;;17.36;75.72;102067.00;4812752;29;20085;-37
2021/07/16 03:57:17;;;;;;;23.35;7.63;;;;;;;17.32;76.26;102063.00;4816994;29;20466;-37
2021/07/16 03:59:44;;;;;;;23.25;7.32;;;;;;;17.17;76.19;102063.63;4810591;29;20817;-37
2021/07/16 04:02:10;;;;;;;26.95;7.53;;;;;;;17.28;76.01;102056.34;4818121;29;20077;-37
2021/07/16 04:04:37;;;;;;;22.65;8.02;;;;;;;17.27;76.17;102057.34;4818237;29;20081;-37
2021/07/16 04:07:05;;;;;;;24.75;7.65;;;;;;;17.15;75.37;102057.66;4815286;29;20153;-37
2021/07/16 04:09:34;;;;;;;25.52;7.05;;;;;;;17.47;74.72;102064.06;4820167;29;20122;-37
2021/07/16 04:12:11;;;;;;;26.85;6.72;;;;;;;17.18;75.91;102065.25;4808375;29;20085;-37
2021/07/16 04:14:42;;;;;;;22.23;6.75;;;;;;;17.17;75.82;102068.91;4816374;29;20551;-37
2021/07/16 04:17:12;;;;;;;29.02;7.38;;;;;;;17.44;75.57;102067.00;4812950;29;20563;-37
2021/07/16 04:19:39;;;;;;;23.40;7.18;;;;;;;17.53;74.18;102065.22;4819347;29;20161;-37
2021/07/16 04:22:07;;;;;;;17.27;6.32;;;;;;;17.88;73.41;102066.00;4812055;29;20662;-37
2021/07/16 04:24:34;;;;;;;25.90;7.13;;;;;;;18.12;72.07;102063.34;4815969;29;20803;-37
2021/07/16 04:27:02;;;;;;;23.67;6.30;;;;;;;18.20;71.53;102067.00;4815545;29;20164;-37
2021/07/16 04:29:29;;;;;;;23.88;6.63;;;;;;;18.31;71.40;102061.34;4800885;29;20161;-37
2021/07/16 04:31:58;;;;;;;25.50;6.80;;;;;;;17.86;73.49;102063.50;4818636;29;20149;-37
2021/07/16 04:34:26;;;;;;;33.33;7.38;;;;;;;17.85;72.66;102069.78;4813270;29;20070;-37
2021/07/16 04:36:54;;;;;;;27.27;7.67;;;;;;;17.53;73.81;102074.00;4818804;29;20062;-37
2021/07/16 04:39:21;;;;;;;26.38;7.35;;;;;;;17.53;74.00;102079.31;4809108;29;20136;-37
2021/07/16 04:41:48;;;;;;;28.65;5.90;;;;;;;17.29;74.80;102084.53;4815020;29;20085;-37
2021/07/16 04:44:15;;;;;;;28.30;7.68;;;;;;;17.51;74.06;102088.44;4813659;29;20165;-37
2021/07/16 04:46:42;;;;;;;32.00;6.95;;;;;;;17.52;73.85;102092.72;4821623;29;20803;-37
2021/07/16 04:49:08;;;;;;;17.65;5.97;;;;;;;17.78;73.53;102097.97;4818605;29;20066;-37
2021/07/16 04:51:35;;;;;;;28.40;6.60;;;;;;;17.24;74.49;102103.56;4824465;29;20153;-37
2021/07/16 04:54:04;;;;;;;24.52;6.22;;;;;;;17.78;73.54;102108.56;4823325;29;20717;-37
2021/07/16 04:56:30;;;;;;;;;;;;;;;17.62;73.18;102100.56;4814923;29;20054;-37
2021/07/16 04:58:57;;;;;;;29.73;6.60;;;;;;;17.20;74.97;102107.53;4830092;29;19968;-37
2021/07/16 05:01:25;;;;;;;28.85;6.50;;;;;;;17.08;75.39;102109.63;4812393;29;20137;-37
2021/07/16 05:03:53;;;;;;;19.33;5.90;;;;;;;17.03;75.79;102097.84;4820322;29;20066;-37
2021/07/16 05:06:20;;;;;;;;;;;;;;;17.02;76.14;102104.16;4817312;29;20489;-37
2021/07/16 05:08:48;;;;;;;22.15;6.13;;;;;;;17.31;76.01;102112.56;4809744;29;20001;-37
2021/07/16 05:11:15;;;;;;;24.58;6.93;;;;;;;17.32;77.05;102110.75;4825817;29;20058;-37
2021/07/16 05:13:42;;;;;;;30.90;6.68;;;;;;;17.45;75.28;102112.94;4815748;29;20161;-37
2021/07/16 05:16:12;;;;;;;17.45;5.93;;;;;;;17.58;75.00;102115.97;4818156;29;20376;-37
2021/07/16 05:18:40;;;;;;;21.85;5.57;;;;;;;17.39;74.07;102117.91;4812476;29;20058;-37
2021/07/16 05:21:09;;;;;;;23.98;5.55;;;;;;;17.34;75.62;102116.72;4809144;29;20137;-37
2021/07/16 05:23:38;;;;;;;20.90;5.55;;;;;;;17.34;74.80;102116.72;4811648;29;20081;-37
2021/07/16 05:26:04;;;;;;;24.83;5.85;;;;;;;17.27;75.75;102108.56;4817319;29;20467;-37
2021/07/16 05:28:31;;;;;;;25.55;6.63;;;;;;;17.13;75.90;102110.00;4818561;29;20493;-37
2021/07/16 05:30:57;;;;;;;22.38;6.35;;;;;;;17.10;76.43;102120.09;4814923;29;20502;-37
2021/07/16 05:33:24;;;;;;;24.27;6.60;;;;;;;17.10;75.91;102120.09;4814584;29;20471;-37
2021/07/16 05:35:52;;;;;;;39.00;8.93;;;;;;;17.36;75.24;102126.16;4809671;29;20093;-37
2021/07/16 05:38:22;;;;;;;;;;;;;;;17.77;75.15;102128.13;4821931;29;20099;-37
2021/07/16 05:40:49;;;;;;;25.48;5.90;;;;;;;17.45;72.89;102119.09;4815979;29;19975;-37
2021/07/16 05:43:15;;;;;;;25.20;6.80;;;;;;;17.32;74.86;102122.16;4815184;29;20141;-37
2021/07/16 05:45:42;;;;;;;27.83;6.07;;;;;;;17.96;73.94;102132.34;4817988;29;20158;-37
2021/07/16 05:48:10;;;;;;;23.38;6.38;;;;;;;17.52;75.49;102122.78;4808342;29;20160;-37
2021/07/16 05:50:42;;;;;;;22.33;5.30;;;;;;;17.49;76.29;102133.69;4816360;29;20348;-37
2021/07/16 05:53:09;;;;;;;18.55;5.30;;;;;;;17.74;74.74;102136.44;4808878;29;20511;-37
2021/07/16 05:55:36;;;;;;;23.17;5.40;;;;;;;18.33;72.37;102139.88;4817718;29;20046;-37
2021/07/16 05:58:04;;;;;;;25.17;6.15;;;;;;;18.68;71.04;102134.34;4821272;29;20066;-37
2021/07/16 06:00:31;;;;;;;23.33;5.35;;;;;;;18.84;68.72;102141.53;4822954;29;20086;-37
2021/07/16 06:02:58;;;;;;;27.15;5.60;;;;;;;18.95;69.31;102139.34;4805803;29;20060;-37
2021/07/16 06:05:25;;;;;;;22.92;5.80;;;;;;;19.06;67.58;102134.66;4816191;29;20060;-37
2021/07/16 06:07:51;;;;;;;28.02;5.60;;;;;;;19.07;67.30;102139.81;4819306;29;20058;-37
2021/07/16 06:10:18;;;;;;;25.55;5.28;;;;;;;19.15;68.03;102144.25;4815643;29;20736;-37
2021/07/16 06:12:44;;;;;;;26.23;5.05;;;;;;;19.23;67.47;102146.91;4816880;29;20140;-37
2021/07/16 06:15:12;;;;;;;26.45;5.78;;;;;;;19.32;67.25;102151.19;4810715;29;20160;-37
2021/07/16 06:17:39;;;;;;;26.33;6.05;;;;;;;18.69;69.63;102152.78;4814779;29;20495;-37
2021/07/16 06:20:07;;;;;;;25.77;5.57;;;;;;;18.64;70.68;102151.63;4812261;29;20746;-37
2021/07/16 06:22:34;;;;;;;;;;;;;;;19.21;69.28;102158.69;4818373;29;20146;-37
2021/07/16 06:25:01;;;;;;;25.92;4.90;;;;;;;19.37;67.77;102158.66;4826650;29;20078;-37
2021/07/16 06:27:28;;;;;;;25.70;5.00;;;;;;;19.42;66.84;102152.81;4808295;29;20534;-37
2021/07/16 06:29:58;;;;;;;27.25;5.80;;;;;;;19.33;67.66;102152.84;4813201;29;20297;-37
2021/07/16 06:32:25;;;;;;;26.67;6.07;;;;;;;19.34;67.93;102151.84;4815181;29;20054;-37
2021/07/16 06:34:51;;;;;;;28.75;5.60;;;;;;;18.92;70.50;102154.81;4816329;29;20093;-37
2021/07/16 06:37:18;;;;;;;19.40;4.70;;;;;;;18.38;70.54;102157.94;4810760;29;20554;-37
2021/07/16 06:39:44;;;;;;;24.95;5.22;;;;;;;18.21;71.47;102153.63;4816683;29;20096;-37
2021/07/16 06:42:11;;;;;;;24.38;4.57;;;;;;;17.98;71.29;102151.59;4815589;29;20105;-37
2021/07/16 06:44:37;;;;;;;27.98;4.60;;;;;;;17.93;72.48;102146.75;4812507;29;20502;-37
2021/07/16 06:47:04;;;;;;;26.13;5.07;;;;;;;17.84;72.91;102152.22;4819821;29;20145;-37
2021/07/16 06:49:30;;;;;;;24.02;4.65;;;;;;;17.88;73.92;102150.94;4823330;29;20161;-37
2021/07/16 06:51:58;;;;;;;26.58;5.95;;;;;;;17.92;74.83;102146.94;4821204;29;20061;-37
2021/07/16 06:54:26;;;;;;;25.83;5.63;;;;;;;17.97;73.96;102156.09;4826191;29;20149;-37
2021/07/16 06:56:53;;;;;;;22.80;5.03;;;;;;;18.08;73.81;102154.13;4817237;29;20137;-38
2021/07/16 06:59:20;;;;;;;;;;;;;;;18.15;73.58;102163.06;4820666;29;20077;-37
2021/07/16 07:01:47;;;;;;;22.63;5.28;;;;;;;18.16;72.20;102154.94;4815752;29;20015;-37
2021/07/16 07:04:14;;;;;;;19.65;4.88;;;;;;;18.08;72.28;102160.25;4816604;29;20490;-37
2021/07/16 07:06:41;;;;;;;29.92;5.85;;;;;;;18.10;71.91;102155.59;4810597;29;20859;-37
2021/07/16 07:09:07;;;;;;;19.92;5.22;;;;;;;18.16;72.73;102157.59;4821860;29;20161;-37
2021/07/16 07:11:33;;;;;;;19.50;5.15;;;;;;;18.14;72.41;102158.78;4813833;29;20133;-38
2021/07/16 07:14:00;;;;;;;24.67;6.30;;;;;;;18.21;72.91;102161.59;4816044;29;20062;-37
2021/07/16 07:16:26;;;;;;;28.63;6.07;;;;;;;18.23;72.44;102168.41;4810534;29;20057;-37
2021/07/16 07:18:53;;;;;;;27.95;6.03;;;;;;;18.25;72.42;102165.56;4816926;29;20058;-37
2021/07/16 07:21:20;;;;;;;22.70;5.30;;;;;;;18.28;72.90;102171.38;4814260;29;20054;-40
2021/07/16 07:23:46;;;;;;;32.00;5.38;;;;;;;18.31;72.54;102179.03;4811132;29;20054;-37
2021/07/16 07:26:13;;;;;;;26.00;5.50;;;;;;;18.20;72.57;102173.22;4821189;29;20161;-37
2021/07/16 07:28:39;;;;;;;28.75;5.60;;;;;;;18.81;71.09;102184.38;4811425;29;20465;-37
2021/07/16 07:31:06;;;;;;;26.52;4.93;;;;;;;18.84;69.17;102184.88;4815366;29;20046;-37
2021/07/16 07:33:32;;;;;;;33.42;5.07;;;;;;;19.03;68.99;102183.69;4813690;29;20055;-37
2021/07/16 07:35:59;;;;;;;23.55;5.57;;;;;;;18.85;68.83;102188.38;4811763;29;20108;-38
2021/07/16 07:38:31;;;;;;;30.63;5.75;;;;;;;18.54;70.54;102194.31;4812640;29;20166;-38
2021/07/16 07:40:59;;;;;;;30.52;5.15;;;;;;;19.08;68.82;102189.31;4816945;29;20062;-37
2021/07/16 07:43:25;;;;;;;25.75;5.45;;;;;;;19.28;68.79;102196.94;4816135;29;20058;-37
2021/07/16 07:45:52;;;;;;;21.23;4.75;;;;;;;19.30;67.32;102194.94;4809368;29;20082;-37
2021/07/16 07:48:18;;;;;;;25.45;5.22;;;;;;;19.29;67.48;102193.28;4814330;29;20061;-37
2021/07/16 07:50:45;;;;;;;30.50;6.50;;;;;;;18.94;69.24;102184.72;4810483;29;20059;-37
2021/07/16 07:53:11;;;;;;;25.05;5.18;;;;;;;19.04;68.58;102189.84;4814838;29;20566;-38
2021/07/16 07:55:38;;;;;;;26.10;5.32;;;;;;;19.08;69.79;102192.00;4811018;29;20125;-37
2021/07/16 07:58:05;;;;;;;30.02;5.20;;;;;;;19.20;69.40;102204.94;4815514;29;20177;-37
2021/07/16 08:00:31;;;;;;;24.25;5.43;;;;;;;19.32;67.43;102184.94;4805684;29;20144;-37
2021/07/16 08:02:58;;;;;;;29.30;6.65;;;;;;;19.06;67.35;102195.81;4815989;29;20118;-38
2021/07/16 08:05:25;;;;;;;25.48;5.43;;;;;;;18.82;70.54;102199.31;4823624;29;20154;-38
2021/07/16 08:07:51;;;;;;;25.83;5.35;;;;;;;19.11;69.19;102206.75;4822057;29;20057;-38
2021/07/16 08:10:22;;;;;;;23.70;5.32;;;;;;;19.40;66.87;102197.41;4817575;29;20153;-38
2021/07/16 08:12:49;;;;;;;31.13;5.88;;;;;;;19.29;67.92;102207.41;4810949;29;20086;-37
2021/07/16 08:15:16;;;;;;;31.02;5.80;;;;;;;19.54;67.23;102212.63;4818963;29;20145;-37
2021/07/16 08:17:43;;;;;;;36.92;5.43;;;;;;;19.35;68.00;102204.06;4814274;29;20480;-37
2021/07/16 08:20:10;;;;;;;27.70;4.90;;;;;;;19.04;67.90;102196.00;4830502;29;20055;-37
2021/07/16 08:22:38;;;;;;;24.10;4.97;;;;;;;19.19;68.73;102203.25;4818377;29;20161;-37
2021/07/16 08:25:07;;;;;;;26.88;5.45;;;;;;;19.52;68.92;102198.66;4812815;29;20134;-38
2021/07/16 08:27:33;;;;;;;32.22;6.15;;;;;;;19.23;66.87;102201.91;4814477;29;20094;-38
2021/07/16 08:30:00;;;;;;;27.33;4.90;;;;;;;19.58;66.99;102207.81;4809004;29;20066;-37
2021/07/16 08:32:31;;;;;;;29.02;5.38;;;;;;;19.74;64.44;102208.59;4817670;29;20055;-37
2021/07/16 08:34:57;;;;;;;24.90;5.57;;;;;;;19.94;65.68;102209.00;4812039;29;20101;-39
2021/07/16 08:37:23;;;;;;;26.58;5.53;;;;;;;20.06;64.47;102213.94;4818098;29;20169;-38
2021/07/16 08:39:50;;;;;;;21.73;5.32;;;;;;;19.98;65.05;102222.81;4818184;29;20468;-38
2021/07/16 08:42:18;;;;;;;20.77;4.65;;;;;;;20.24;66.11;102219.81;4804112;29;20054;-38
2021/07/16 08:44:45;;;;;;;33.92;5.30;;;;;;;20.26;64.13;102207.13;4815647;29;20133;-38
2021/07/16 08:47:12;;;;;;;24.00;5.50;;;;;;;20.17;64.93;102218.03;4815385;29;20103;-38
2021/07/16 08:49:39;;;;;;;21.33;4.65;;;;;;;20.21;65.56;102222.00;4818974;29;20816;-37
2021/07/16 08:52:07;;;;;;;24.65;5.60;;;;;;;19.92;63.31;102213.66;4811770;29;20085;-38
2021/07/16 08:54:38;;;;;;;30.90;6.10;;;;;;;20.25;65.85;102215.34;4814463;29;20519;-38
2021/07/16 08:57:05;;;;;;;26.23;5.57;;;;;;;20.43;64.74;102215.84;4814470;29;20144;-38
2021/07/16 08:59:31;;;;;;;35.17;6.00;;;;;;;20.66;64.86;102215.88;4813076;29;20149;-38
2021/07/16 09:02:01;;;;;;;31.63;5.57;;;;;;;20.79;62.64;102225.09;4830325;29;20054;-37
2021/07/16 09:04:36;;;;;;;26.10;5.40;;;;;;;20.93;63.39;102216.28;4812149;29;20062;-37
2021/07/16 09:07:02;;;;;;;25.65;5.32;;;;;;;20.83;61.08;102223.72;4817681;29;20600;-37
2021/07/16 09:09:36;;;;;;;21.23;4.90;;;;;;;20.97;61.96;102224.78;4800425;29;20157;-37
2021/07/16 09:12:12;;;;;;;33.42;5.40;;;;;;;21.10;60.93;102216.97;4815776;29;20079;-38
2021/07/16 09:14:39;;;;;;;27.17;5.65;;;;;;;21.28;61.58;102225.44;4809246;29;20054;-37
2021/07/16 09:17:12;;;;;;;25.45;5.97;;;;;;;21.09;61.31;102224.16;4816979;29;20476;-37
2021/07/16 09:19:44;;;;;;;26.10;5.88;;;;;;;21.38;59.75;102225.16;4818289;29;20149;-37
2021/07/16 09:22:13;;;;;;;29.65;5.85;;;;;;;21.42;60.43;102223.78;4808267;29;20153;-38
2021/07/16 09:24:43;;;;;;;18.13;4.97;;;;;;;21.35;60.14;102233.56;4816629;29;20090;-37
2021/07/16 09:27:31;;;;;;;26.10;5.30;;;;;;;21.34;62.99;102226.56;4811422;29;20057;-37
2021/07/16 09:30:21;;;;;;;25.73;5.13;;;;;;;20.98;60.56;102227.25;4817693;29;20125;-37
2021/07/16 09:32:59;;;;;;;15.85;5.10;;;;;;;21.16;61.20;102226.91;4822437;29;20542;-37
2021/07/16 09:35:27;;;;;;;26.42;7.03;;;;;;;21.06;61.83;102234.34;4823798;29;20145;-37
2021/07/16 09:37:59;;;;;;;21.77;5.10;;;;;;;21.05;60.45;102246.03;4813455;29;20495;-37
2021/07/16 09:40:27;;;;;;;24.70;6.20;;;;;;;21.12;61.83;102250.47;4818440;29;20154;-37
2021/07/16 09:43:06;;;;;;;28.17;6.10;;;;;;;21.08;62.37;102243.81;4811130;29;20148;-37
2021/07/16 09:45:34;;;;;;;22.63;5.68;;;;;;;20.61;63.05;102247.56;4810398;29;20517;-37
2021/07/16 09:48:16;;;;;;;;;;;;;;;20.49;63.57;102259.63;4812227;29;20164;-37
2021/07/16 09:50:44;;;;;;;20.88;5.10;;;;;;;20.55;63.91;102256.25;4826916;29;19983;-37
2021/07/16 09:53:26;;;;;;;23.35;4.88;;;;;;;20.54;63.27;102262.56;4820166;29;20614;-37
2021/07/16 09:56:09;;;;;;;22.20;5.32;;;;;;;20.58;61.93;102268.38;4817136;29;20051;-37
2021/07/16 09:58:35;;;;;;;26.10;5.97;;;;;;;20.64;64.49;102267.69;4813725;29;20141;-37
2021/07/16 10:01:02;;;;;;;28.67;6.10;;;;;;;20.53;65.14;102256.41;4806336;29;20058;-37
2021/07/16 10:03:29;;;;;;;32.30;6.28;;;;;;;20.52;65.55;102257.44;4817243;29;20505;-37
2021/07/16 10:05:57;;;;;;;17.17;5.18;;;;;;;20.59;67.25;102252.25;4811764;29;20430;-37
2021/07/16 10:08:24;;;;;;;32.40;6.18;;;;;;;20.45;67.02;102247.66;4817376;29;20148;-37
2021/07/16 10:10:51;;;;;;;31.77;6.50;;;;;;;20.15;69.65;102259.00;4815867;29;20140;-37
2021/07/16 10:13:18;;;;;;;25.88;6.55;;;;;;;20.39;67.87;102253.72;4818186;29;20065;-37
2021/07/16 10:15:45;;;;;;;36.50;6.30;;;;;;;20.26;67.94;102247.09;4817403;29;20058;-37
2021/07/16 10:18:12;;;;;;;31.65;7.45;;;;;;;20.47;67.54;102256.31;4811712;29;20093;-37
2021/07/16 10:20:39;;;;;;;25.75;7.07;;;;;;;20.13;67.00;102261.00;4817560;29;20153;-37
2021/07/16 10:23:08;;;;;;;34.92;7.00;;;;;;;19.91;70.26;102275.09;4810459;29;20141;-37
2021/07/16 10:25:35;;;;;;;28.45;5.88;;;;;;;19.94;70.42;102280.09;4815228;29;20149;-37
2021/07/16 10:28:02;;;;;;;27.47;6.10;;;;;;;20.25;69.02;102277.44;4817096;29;20165;-37
2021/07/16 10:30:34;;;;;;;32.22;7.05;;;;;;;20.26;69.12;102268.41;4817064;29;20137;-37
2021/07/16 10:33:01;;;;;;;32.72;7.03;;;;;;;20.26;69.19;102279.06;4811069;29;20540;-36
2021/07/16 10:35:38;;;;;;;24.02;7.10;;;;;;;20.28;69.39;102292.22;4817364;29;20556;-36
2021/07/16 10:38:32;;;;;;;36.85;6.60;;;;;;;20.43;69.87;102290.47;4816542;29;20092;-36
2021/07/16 10:41:00;;;;;;;29.95;7.05;;;;;;;20.44;69.32;102297.44;4824722;29;20064;-36
2021/07/16 10:43:27;;;;;;;30.75;6.78;;;;;;;20.48;68.99;102290.78;4820325;29;20114;-36
2021/07/16 10:46:01;;;;;;;32.03;8.27;;;;;;;20.66;69.36;102287.88;4820489;29;20141;-36
2021/07/16 10:48:37;;;;;;;35.50;7.97;;;;;;;20.76;69.21;102290.28;4824859;29;20061;-36
2021/07/16 10:51:06;;;;;;;34.38;8.02;;;;;;;20.87;69.60;102287.19;4816872;29;20115;-37
2021/07/16 10:53:32;;;;;;;26.65;6.80;;;;;;;20.92;68.36;102290.16;4826750;29;20136;-36
2021/07/16 10:56:02;;;;;;;38.40;7.60;;;;;;;21.03;69.29;102285.41;4819195;29;20863;-36
2021/07/16 10:58:52;;;;;;;40.38;7.38;;;;;;;20.94;68.42;102284.66;4816878;29;20498;-36
2021/07/16 11:01:34;;;;;;;32.38;8.32;;;;;;;20.96;67.73;102285.28;4810240;29;20146;-36
2021/07/16 11:04:02;;;;;;;29.00;7.47;;;;;;;21.00;68.27;102285.78;4804704;29;20590;-36
2021/07/16 11:06:49;;;;;;;26.88;6.13;;;;;;;20.97;68.49;102284.28;4811110;29;20188;-36
2021/07/16 11:09:42;;;;;;;28.13;6.63;;;;;;;20.88;67.40;102288.03;4806474;29;20087;-36
2021/07/16 11:12:25;;;;;;;37.10;7.85;;;;;;;20.85;66.31;102286.53;4809211;29;20058;-37
2021/07/16 11:14:53;;;;;;;29.23;6.55;;;;;;;20.86;65.93;102288.22;4815854;29;20490;-37
2021/07/16 11:17:28;;;;;;;31.63;7.10;;;;;;;20.99;67.63;102294.75;4810910;29;20137;-37
2021/07/16 11:20:16;;;;;;;27.02;7.05;;;;;;;20.99;67.31;102290.25;4816155;29;20146;-38
2021/07/16 11:22:57;;;;;;;31.15;6.75;;;;;;;21.02;66.98;102287.25;4813700;29;20432;-37
2021/07/16 11:25:24;;;;;;;27.42;6.40;;;;;;;21.04;65.32;102285.22;4816012;29;20058;-37